createdAt,value
2017-07-19T00:00:50.512Z,18.70
2017-07-19T00:03:17.998Z,18.60
2017-07-19T00:05:45.500Z,18.60
2017-07-19T00:08:13.741Z,18.70
2017-07-19T00:10:41.281Z,18.70
2017-07-19T00:13:08.750Z,18.70
2017-07-19T00:15:36.248Z,18.80
2017-07-19T00:18:04.516Z,18.80
2017-07-19T00:20:31.996Z,18.80
2017-07-19T00:23:00.238Z,18.70
2017-07-19T00:25:27.733Z,18.70
2017-07-19T00:27:55.216Z,18.90
2017-07-19T00:30:22.732Z,19.00
2017-07-19T00:32:50.199Z,19.10
2017-07-19T00:35:17.688Z,19.20
2017-07-19T00:37:45.177Z,19.30
2017-07-19T00:40:12.677Z,19.30
2017-07-19T00:42:40.153Z,19.30
2017-07-19T00:45:07.640Z,19.20
2017-07-19T00:47:35.104Z,19.30
2017-07-19T00:50:02.600Z,19.30
2017-07-19T00:52:30.072Z,19.40
2017-07-19T00:54:57.580Z,19.40
2017-07-19T00:57:25.047Z,19.40
2017-07-19T00:59:52.561Z,19.30
2017-07-19T01:02:20.052Z,19.30
2017-07-19T01:04:47.544Z,19.30
2017-07-19T01:07:15.027Z,19.30
2017-07-19T01:09:42.552Z,19.30
2017-07-19T01:12:10.036Z,19.40
2017-07-19T01:14:37.518Z,19.40
2017-07-19T01:17:05.017Z,19.40
2017-07-19T01:19:32.509Z,19.50
2017-07-19T01:21:59.995Z,19.50
2017-07-19T01:24:27.507Z,19.60
2017-07-19T01:26:55.009Z,19.40
2017-07-19T01:29:22.484Z,19.40
2017-07-19T01:31:50.633Z,19.30
2017-07-19T01:34:18.120Z,19.20
2017-07-19T01:36:45.600Z,19.20
2017-07-19T01:39:13.081Z,19.10
2017-07-19T01:41:41.345Z,19.30
2017-07-19T01:44:08.824Z,19.30
2017-07-19T01:46:36.423Z,19.30
2017-07-19T01:49:03.910Z,19.30
2017-07-19T01:51:31.429Z,19.30
2017-07-19T01:53:59.736Z,19.30
2017-07-19T01:56:27.228Z,19.20
2017-07-19T01:58:55.489Z,19.10
2017-07-19T02:01:22.956Z,19.20
2017-07-19T02:03:50.452Z,19.20
2017-07-19T02:06:17.943Z,19.20
2017-07-19T02:08:45.413Z,19.30
2017-07-19T02:11:13.615Z,19.30
2017-07-19T02:13:41.223Z,19.30
2017-07-19T02:16:08.717Z,19.20
2017-07-19T02:18:36.198Z,19.20
2017-07-19T02:21:03.956Z,19.10
2017-07-19T02:23:31.493Z,19.10
2017-07-19T02:25:58.964Z,19.20
2017-07-19T02:28:26.510Z,19.10
2017-07-19T02:30:53.984Z,19.10
2017-07-19T02:33:21.496Z,19.10
2017-07-19T02:35:48.988Z,19.10
2017-07-19T02:38:16.484Z,19.20
2017-07-19T02:40:43.957Z,19.20
2017-07-19T02:43:11.447Z,19.20
2017-07-19T02:45:38.944Z,19.20
2017-07-19T02:48:06.442Z,19.20
2017-07-19T02:50:33.932Z,19.30
2017-07-19T02:53:01.405Z,19.30
2017-07-19T02:55:28.888Z,19.30
2017-07-19T02:57:56.389Z,19.40
2017-07-19T03:00:23.888Z,19.40
2017-07-19T03:02:52.129Z,19.40
2017-07-19T03:05:19.639Z,19.40
2017-07-19T03:07:47.113Z,19.40
2017-07-19T03:10:14.604Z,19.40
2017-07-19T03:12:42.088Z,19.50
2017-07-19T03:15:09.571Z,19.50
2017-07-19T03:17:37.825Z,19.50
2017-07-19T03:20:05.294Z,19.50
2017-07-19T03:22:44.608Z,19.50
2017-07-19T03:25:12.081Z,19.50
2017-07-19T03:27:40.329Z,19.40
2017-07-19T03:30:07.831Z,19.40
2017-07-19T03:32:36.075Z,19.20
2017-07-19T03:35:03.569Z,19.20
2017-07-19T03:37:31.057Z,19.20
2017-07-19T03:39:58.553Z,19.10
2017-07-19T03:42:26.029Z,19.00
2017-07-19T03:44:53.535Z,19.00
2017-07-19T03:47:21.022Z,19.00
2017-07-19T03:49:48.512Z,18.90
2017-07-19T03:52:16.990Z,18.70
2017-07-19T03:54:44.476Z,18.80
2017-07-19T03:57:12.599Z,18.80
2017-07-19T03:59:40.072Z,18.70
2017-07-19T04:02:07.593Z,18.60
2017-07-19T04:04:35.077Z,18.60
2017-07-19T04:07:02.613Z,18.70
2017-07-19T04:09:30.096Z,18.70
2017-07-19T04:11:57.580Z,18.90
2017-07-19T04:14:25.083Z,18.90
2017-07-19T04:16:52.573Z,19.00
2017-07-19T04:19:20.060Z,19.10
2017-07-19T04:21:47.543Z,19.20
2017-07-19T04:24:15.032Z,19.40
2017-07-19T04:26:42.519Z,19.40
2017-07-19T04:29:10.791Z,19.60
2017-07-19T04:31:39.133Z,19.70
2017-07-19T04:34:06.607Z,19.70
2017-07-19T04:36:34.085Z,19.70
2017-07-19T04:39:02.336Z,19.80
2017-07-19T04:41:29.812Z,19.80
2017-07-19T04:43:57.301Z,19.90
2017-07-19T04:46:24.782Z,20.10
2017-07-19T04:48:52.274Z,20.10
2017-07-19T04:51:19.744Z,20.10
2017-07-19T04:53:47.216Z,20.00
2017-07-19T04:56:15.463Z,20.10
2017-07-19T04:58:42.958Z,20.10
2017-07-19T05:01:10.449Z,20.10
2017-07-19T05:03:37.956Z,20.10
2017-07-19T05:06:06.279Z,20.10
2017-07-19T05:08:33.740Z,20.10
2017-07-19T05:11:01.261Z,20.10
2017-07-19T05:13:29.499Z,20.20
2017-07-19T05:15:56.993Z,20.20
2017-07-19T05:18:24.499Z,20.10
2017-07-19T05:20:51.977Z,20.00
2017-07-19T05:23:19.476Z,20.00
2017-07-19T05:25:47.717Z,19.90
2017-07-19T05:28:15.188Z,19.90
2017-07-19T05:30:42.695Z,19.90
2017-07-19T05:33:10.188Z,20.20
2017-07-19T05:35:37.688Z,20.00
2017-07-19T05:38:05.183Z,20.10
2017-07-19T05:40:32.682Z,20.10
2017-07-19T05:43:00.160Z,20.20
2017-07-19T05:45:28.416Z,20.30
2017-07-19T05:47:55.882Z,20.30
2017-07-19T05:50:23.384Z,20.50
2017-07-19T05:52:50.852Z,20.60
2017-07-19T05:55:18.335Z,20.90
2017-07-19T05:57:45.808Z,20.90
2017-07-19T06:00:13.334Z,20.90
2017-07-19T06:02:40.818Z,21.00
2017-07-19T06:05:09.173Z,21.30
2017-07-19T06:07:36.665Z,21.50
2017-07-19T06:10:04.921Z,21.70
2017-07-19T06:12:32.411Z,21.70
2017-07-19T06:15:00.675Z,21.60
2017-07-19T06:17:28.926Z,21.80
2017-07-19T06:19:56.428Z,21.80
2017-07-19T06:22:23.901Z,21.80
2017-07-19T06:24:51.400Z,21.90
2017-07-19T06:27:18.880Z,21.70
2017-07-19T06:29:47.132Z,21.90
2017-07-19T06:32:14.637Z,21.90
2017-07-19T06:34:42.868Z,22.00
2017-07-19T06:37:10.349Z,22.00
2017-07-19T06:39:37.824Z,22.10
2017-07-19T06:42:06.067Z,22.30
2017-07-19T06:44:33.536Z,22.30
2017-07-19T06:47:01.017Z,22.40
2017-07-19T06:49:29.253Z,22.70
2017-07-19T06:51:56.755Z,22.70
2017-07-19T06:54:24.253Z,22.80
2017-07-19T06:56:51.749Z,23.10
2017-07-19T06:59:19.997Z,24.40
2017-07-19T07:01:47.460Z,24.40
2017-07-19T07:04:14.948Z,25.10
2017-07-19T07:06:43.197Z,26.40
2017-07-19T07:09:10.703Z,26.40
2017-07-19T07:11:38.204Z,27.00
2017-07-19T07:14:05.697Z,26.90
2017-07-19T07:16:33.948Z,27.90
2017-07-19T07:19:01.447Z,27.90
2017-07-19T07:21:29.680Z,28.10
2017-07-19T07:23:57.161Z,28.00
2017-07-19T07:26:24.629Z,28.40
2017-07-19T07:28:52.893Z,28.90
2017-07-19T07:31:20.355Z,28.90
2017-07-19T07:33:48.597Z,29.00
2017-07-19T07:36:16.134Z,29.00
2017-07-19T07:38:43.628Z,28.60
2017-07-19T07:41:11.151Z,29.30
2017-07-19T07:43:38.637Z,29.90
2017-07-19T07:46:06.141Z,30.10
2017-07-19T07:48:34.392Z,31.10
2017-07-19T07:51:01.857Z,31.00
2017-07-19T07:53:29.345Z,31.70
2017-07-19T07:55:56.828Z,32.00
2017-07-19T07:58:24.296Z,31.80
2017-07-19T08:00:51.814Z,32.00
2017-07-19T08:03:19.284Z,32.00
2017-07-19T08:05:46.773Z,32.70
2017-07-19T08:08:14.270Z,33.30
2017-07-19T08:10:42.507Z,33.90
2017-07-19T08:13:10.008Z,33.90
2017-07-19T08:15:38.248Z,33.20
2017-07-19T08:18:05.757Z,33.20
2017-07-19T08:20:33.216Z,33.70
2017-07-19T08:25:34.717Z,34.00
2017-07-19T08:28:02.200Z,34.60
2017-07-19T08:30:29.710Z,34.40
2017-07-19T08:32:57.184Z,34.70
2017-07-19T08:35:24.667Z,34.20
2017-07-19T08:37:52.128Z,34.20
2017-07-19T08:40:19.619Z,34.40
2017-07-19T08:42:47.865Z,33.60
2017-07-19T08:45:15.333Z,33.50
2017-07-19T08:47:42.816Z,33.60
2017-07-19T08:50:10.293Z,33.80
2017-07-19T08:52:37.776Z,33.60
2017-07-19T08:55:05.260Z,34.50
2017-07-19T08:57:32.758Z,34.50
2017-07-19T09:00:00.244Z,34.70
2017-07-19T09:02:27.723Z,34.30
2017-07-19T09:04:55.211Z,34.70
2017-07-19T09:07:23.454Z,34.50
2017-07-19T09:09:50.940Z,34.50
2017-07-19T09:12:19.179Z,34.70
2017-07-19T09:14:46.688Z,34.70
2017-07-19T09:17:14.924Z,35.10
2017-07-19T09:19:42.388Z,35.00
2017-07-19T09:22:09.893Z,35.60
2017-07-19T09:24:37.388Z,36.10
2017-07-19T09:27:04.869Z,35.80
2017-07-19T09:29:32.365Z,35.80
2017-07-19T09:32:00.591Z,36.10
2017-07-19T09:34:28.064Z,36.10
2017-07-19T09:36:55.557Z,35.60
2017-07-19T09:39:23.037Z,35.60
2017-07-19T09:41:50.528Z,35.00
2017-07-19T09:44:17.998Z,34.90
2017-07-19T09:46:45.496Z,35.30
2017-07-19T09:49:12.989Z,35.60
2017-07-19T09:51:40.491Z,35.50
2017-07-19T09:54:08.717Z,35.20
2017-07-19T09:56:36.206Z,35.20
2017-07-19T09:59:03.672Z,36.00
2017-07-19T10:01:31.177Z,37.00
2017-07-19T10:03:58.657Z,37.50
2017-07-19T10:06:26.153Z,37.20
2017-07-19T10:08:54.397Z,37.20
2017-07-19T10:11:21.883Z,37.10
2017-07-19T10:13:49.349Z,37.40
2017-07-19T10:16:17.597Z,36.60
2017-07-19T10:18:45.099Z,36.60
2017-07-19T10:21:12.575Z,37.10
2017-07-19T10:23:40.045Z,37.60
2017-07-19T10:26:07.538Z,37.20
2017-07-19T10:28:35.012Z,37.00
2017-07-19T10:31:03.313Z,37.60
2017-07-19T10:33:30.782Z,37.60
2017-07-19T10:35:58.298Z,37.90
2017-07-19T10:38:25.892Z,38.90
2017-07-19T10:40:53.377Z,37.90
2017-07-19T10:43:20.875Z,38.50
2017-07-19T10:45:48.352Z,37.30
2017-07-19T10:48:15.844Z,37.60
2017-07-19T10:50:43.324Z,38.60
2017-07-19T10:53:10.816Z,39.20
2017-07-19T10:55:39.051Z,38.80
2017-07-19T10:58:06.556Z,38.80
2017-07-19T11:00:34.815Z,38.70
2017-07-19T11:03:02.293Z,38.70
2017-07-19T11:05:30.571Z,39.70
2017-07-19T11:07:58.801Z,39.80
2017-07-19T11:10:26.278Z,39.70
2017-07-19T11:12:53.761Z,38.20
2017-07-19T11:15:22.017Z,36.80
2017-07-19T11:17:49.475Z,36.70
2017-07-19T11:20:16.955Z,36.20
2017-07-19T11:22:45.216Z,34.90
2017-07-19T11:25:13.465Z,34.70
2017-07-19T11:27:40.961Z,34.70
2017-07-19T11:30:08.439Z,34.90
2017-07-19T11:32:35.919Z,34.40
2017-07-19T11:35:03.402Z,34.80
2017-07-19T11:37:30.894Z,35.00
2017-07-19T11:39:59.151Z,35.00
2017-07-19T11:42:26.641Z,35.00
2017-07-19T11:44:54.138Z,34.30
2017-07-19T11:47:21.631Z,34.00
2017-07-19T11:49:49.120Z,33.80
2017-07-19T11:52:16.603Z,33.80
2017-07-19T11:54:44.101Z,33.90
2017-07-19T11:57:11.582Z,33.90
2017-07-19T11:59:39.813Z,34.70
2017-07-19T12:02:07.296Z,34.60
2017-07-19T12:04:35.532Z,34.20
2017-07-19T12:07:03.012Z,34.20
2017-07-19T12:09:30.496Z,34.30
2017-07-19T12:11:58.751Z,34.10
2017-07-19T12:14:26.223Z,34.10
2017-07-19T12:16:53.696Z,34.30
2017-07-19T12:19:21.959Z,34.10
2017-07-19T12:21:50.204Z,34.10
2017-07-19T12:24:17.689Z,34.10
2017-07-19T12:26:45.167Z,34.10
2017-07-19T12:29:13.417Z,33.80
2017-07-19T12:31:40.908Z,33.70
2017-07-19T12:34:08.368Z,33.40
2017-07-19T12:36:35.856Z,33.20
2017-07-19T12:39:03.365Z,33.20
2017-07-19T12:41:31.591Z,33.40
2017-07-19T12:43:59.078Z,33.30
2017-07-19T12:46:26.552Z,33.10
2017-07-19T12:48:54.043Z,33.30
2017-07-19T12:51:21.521Z,33.70
2017-07-19T12:53:49.031Z,33.80
2017-07-19T12:56:17.283Z,33.80
2017-07-19T12:58:44.760Z,33.80
2017-07-19T13:01:12.234Z,33.90
2017-07-19T13:03:40.491Z,33.70
2017-07-19T13:06:07.960Z,33.70
2017-07-19T13:08:36.193Z,34.10
2017-07-19T13:11:03.680Z,34.00
2017-07-19T13:13:31.186Z,34.30
2017-07-19T13:15:58.665Z,34.20
2017-07-19T13:18:26.147Z,34.20
2017-07-19T13:20:53.613Z,34.10
2017-07-19T13:23:21.123Z,33.50
2017-07-19T13:25:48.600Z,33.20
2017-07-19T13:28:16.089Z,33.00
2017-07-19T13:30:43.574Z,33.30
2017-07-19T13:33:11.074Z,33.40
2017-07-19T13:35:38.542Z,33.20
2017-07-19T13:38:06.070Z,33.30
2017-07-19T13:40:33.540Z,33.20
2017-07-19T13:43:01.051Z,33.20
2017-07-19T13:45:29.276Z,33.80
2017-07-19T13:47:56.793Z,33.80
2017-07-19T13:50:25.036Z,32.90
2017-07-19T13:52:52.506Z,32.80
2017-07-19T13:55:19.992Z,32.80
2017-07-19T13:57:47.457Z,33.00
2017-07-19T14:00:14.936Z,33.00
2017-07-19T14:02:42.415Z,32.60
2017-07-19T14:05:09.906Z,32.30
2017-07-19T14:07:38.169Z,32.20
2017-07-19T14:10:05.647Z,32.20
2017-07-19T14:12:33.906Z,32.10
2017-07-19T14:15:01.415Z,32.10
2017-07-19T14:17:28.900Z,32.20
2017-07-19T14:19:56.383Z,32.50
2017-07-19T14:22:23.852Z,32.60
2017-07-19T14:24:52.113Z,32.80
2017-07-19T14:27:19.592Z,32.90
2017-07-19T14:29:47.851Z,34.00
2017-07-19T14:32:15.317Z,34.00
2017-07-19T14:34:43.580Z,33.30
2017-07-19T14:37:11.075Z,33.40
2017-07-19T14:39:38.561Z,33.70
2017-07-19T14:42:06.028Z,33.60
2017-07-19T14:44:34.342Z,33.70
2017-07-19T14:47:01.844Z,33.70
2017-07-19T14:49:29.332Z,33.60
2017-07-19T14:51:56.857Z,33.40
2017-07-19T14:54:24.324Z,33.30
2017-07-19T14:56:51.844Z,33.30
2017-07-19T14:59:20.085Z,33.30
2017-07-19T15:01:47.575Z,33.30
2017-07-19T15:04:15.821Z,33.40
2017-07-19T15:06:43.337Z,33.40
2017-07-19T15:09:10.821Z,33.10
2017-07-19T15:11:38.304Z,33.00
2017-07-19T15:14:05.792Z,33.00
2017-07-19T15:16:34.033Z,32.60
2017-07-19T15:19:02.126Z,32.50
2017-07-19T15:21:29.604Z,32.40
2017-07-19T15:23:57.848Z,32.00
2017-07-19T15:26:25.333Z,32.00
2017-07-19T15:28:53.585Z,31.80
2017-07-19T15:31:21.060Z,31.80
2017-07-19T15:33:49.316Z,31.80
2017-07-19T15:36:16.832Z,31.70
2017-07-19T15:38:44.351Z,31.60
2017-07-19T15:41:12.592Z,31.40
2017-07-19T15:43:40.064Z,31.40
2017-07-19T15:46:07.554Z,31.40
2017-07-19T15:48:35.816Z,31.20
2017-07-19T15:51:03.297Z,31.30
2017-07-19T15:53:31.638Z,31.20
2017-07-19T15:55:59.110Z,31.20
2017-07-19T15:58:27.340Z,31.00
2017-07-19T16:00:54.825Z,31.10
2017-07-19T16:03:22.313Z,31.10
2017-07-19T16:05:50.781Z,31.00
2017-07-19T16:08:18.271Z,31.00
2017-07-19T16:10:45.777Z,30.90
2017-07-19T16:13:13.260Z,30.80
2017-07-19T16:15:41.533Z,30.60
2017-07-19T16:18:08.996Z,30.60
2017-07-19T16:20:37.253Z,30.40
2017-07-19T16:23:04.738Z,30.40
2017-07-19T16:25:32.960Z,30.40
2017-07-19T16:28:00.457Z,30.40
2017-07-19T16:30:27.928Z,30.40
2017-07-19T16:32:56.185Z,30.40
2017-07-19T16:35:23.664Z,30.40
2017-07-19T16:37:51.935Z,30.60
2017-07-19T16:40:20.186Z,30.60
2017-07-19T16:42:47.662Z,30.70
2017-07-19T16:45:15.928Z,30.80
2017-07-19T16:47:43.406Z,30.80
2017-07-19T16:50:11.687Z,30.80
2017-07-19T16:52:39.174Z,30.80
2017-07-19T16:55:06.672Z,30.70
2017-07-19T16:57:34.149Z,30.70
2017-07-19T17:00:02.417Z,30.50
2017-07-19T17:02:29.886Z,30.40
2017-07-19T17:04:57.359Z,30.50
2017-07-19T17:07:24.849Z,30.30
2017-07-19T17:09:52.325Z,30.30
2017-07-19T17:12:19.840Z,30.20
2017-07-19T17:14:47.337Z,30.10
2017-07-19T17:17:14.832Z,30.00
2017-07-19T17:19:43.079Z,29.90
2017-07-19T17:22:10.570Z,29.90
2017-07-19T17:24:38.828Z,30.00
2017-07-19T17:27:06.349Z,30.00
2017-07-19T17:29:33.817Z,29.90
2017-07-19T17:32:01.362Z,29.90
2017-07-19T17:34:28.833Z,29.80
2017-07-19T17:36:56.349Z,29.70
2017-07-19T17:39:23.824Z,29.60
2017-07-19T17:41:51.471Z,29.40
2017-07-19T17:44:19.709Z,29.30
2017-07-19T17:46:47.217Z,29.30
2017-07-19T17:49:14.698Z,29.40
2017-07-19T17:51:42.201Z,29.40
2017-07-19T17:54:09.673Z,29.40
2017-07-19T17:56:37.196Z,29.40
2017-07-19T17:59:04.697Z,29.40
2017-07-19T18:01:36.189Z,29.40
2017-07-19T18:04:03.723Z,29.30
2017-07-19T18:06:31.225Z,29.30
2017-07-19T18:08:58.718Z,29.20
2017-07-19T18:11:26.209Z,29.20
2017-07-19T18:13:53.685Z,29.00
2017-07-19T18:16:21.222Z,28.90
2017-07-19T18:18:48.737Z,28.90
2017-07-19T18:21:16.225Z,28.80
2017-07-19T18:23:43.712Z,28.80
2017-07-19T18:26:11.204Z,28.60
2017-07-19T18:28:40.158Z,28.40
2017-07-19T18:31:07.650Z,28.40
2017-07-19T18:33:35.149Z,28.30
2017-07-19T18:36:03.425Z,28.20
2017-07-19T18:38:30.894Z,28.10
2017-07-19T18:40:59.158Z,28.00
2017-07-19T18:43:27.434Z,27.90
2017-07-19T18:45:55.905Z,27.90
2017-07-19T18:48:23.623Z,27.90
2017-07-19T18:50:51.940Z,27.80
2017-07-19T18:53:19.440Z,27.70
2017-07-19T18:55:46.940Z,27.70
2017-07-19T18:58:15.187Z,27.80
2017-07-19T19:00:42.689Z,27.70
2017-07-19T19:03:10.165Z,27.70
2017-07-19T19:05:37.727Z,27.70
2017-07-19T19:08:05.227Z,27.70
2017-07-19T19:10:32.733Z,27.60
2017-07-19T19:13:00.225Z,27.60
2017-07-19T19:15:27.724Z,27.60
2017-07-19T19:17:55.981Z,27.50
2017-07-19T19:20:23.466Z,27.40
2017-07-19T19:22:51.016Z,27.40
2017-07-19T19:25:18.526Z,27.30
2017-07-19T19:27:46.031Z,27.30
2017-07-19T19:30:13.537Z,27.20
2017-07-19T19:32:41.008Z,27.10
2017-07-19T19:35:09.289Z,27.00
2017-07-19T19:37:37.536Z,26.90
2017-07-19T19:40:05.055Z,26.90
2017-07-19T19:42:32.546Z,26.80
2017-07-19T19:45:00.016Z,26.80
2017-07-19T19:47:27.528Z,26.60
2017-07-19T19:49:55.029Z,26.40
2017-07-19T19:52:22.539Z,26.20
2017-07-19T19:54:50.041Z,26.00
2017-07-19T19:57:18.281Z,25.50
2017-07-19T19:59:45.756Z,25.40
2017-07-19T20:02:13.277Z,24.90
2017-07-19T20:04:40.744Z,24.30
2017-07-19T20:07:09.409Z,24.10
2017-07-19T20:09:36.896Z,24.00
2017-07-19T20:12:05.060Z,23.60
2017-07-19T20:14:32.525Z,23.00
2017-07-19T20:17:00.017Z,22.30
2017-07-19T20:19:28.285Z,21.40
2017-07-19T20:21:56.541Z,21.20
2017-07-19T20:24:24.052Z,21.20
2017-07-19T20:26:51.545Z,21.30
2017-07-19T20:29:19.064Z,21.40
2017-07-19T20:31:46.565Z,20.90
2017-07-19T20:34:14.048Z,19.80
2017-07-19T20:36:41.569Z,19.40
2017-07-19T20:39:09.044Z,19.20
2017-07-19T20:41:36.555Z,19.10
2017-07-19T20:44:04.037Z,19.10
2017-07-19T20:46:31.537Z,19.00
2017-07-19T20:48:59.038Z,19.00
2017-07-19T20:51:26.630Z,18.80
2017-07-19T20:53:54.106Z,18.80
2017-07-19T20:56:21.606Z,18.80
2017-07-19T20:58:49.072Z,18.90
2017-07-19T21:01:16.557Z,19.10
2017-07-19T21:03:44.052Z,19.10
2017-07-19T21:06:12.305Z,18.80
2017-07-19T21:08:39.797Z,18.70
2017-07-19T21:11:08.078Z,19.00
2017-07-19T21:13:36.324Z,19.10
2017-07-19T21:16:03.813Z,19.10
2017-07-19T21:18:32.078Z,19.00
2017-07-19T21:21:00.342Z,19.00
2017-07-19T21:23:27.825Z,19.00
2017-07-19T21:25:56.107Z,18.80
2017-07-19T21:28:23.571Z,18.70
2017-07-19T21:30:51.152Z,18.70
2017-07-19T21:33:18.659Z,18.60
2017-07-19T21:35:46.141Z,18.50
2017-07-19T21:38:13.646Z,18.40
2017-07-19T21:40:41.117Z,18.30
2017-07-19T21:43:08.617Z,18.40
2017-07-19T21:45:36.112Z,18.50
2017-07-19T21:48:03.580Z,18.50
2017-07-19T21:50:31.097Z,18.40
2017-07-19T21:52:58.613Z,18.40
2017-07-19T21:55:26.098Z,18.40
2017-07-19T21:57:54.367Z,18.40
2017-07-19T22:00:22.603Z,18.40
2017-07-19T22:02:50.095Z,18.40
2017-07-19T22:05:17.606Z,18.40
2017-07-19T22:07:45.131Z,18.40
2017-07-19T22:10:13.404Z,18.40
2017-07-19T22:12:40.927Z,18.40
2017-07-19T22:15:09.327Z,18.40
2017-07-19T22:17:37.603Z,18.40
2017-07-19T22:20:05.106Z,18.40
2017-07-19T22:22:32.599Z,18.30
2017-07-19T22:25:00.076Z,18.30
2017-07-19T22:27:27.553Z,18.30
2017-07-19T22:29:55.812Z,18.20
2017-07-19T22:32:23.301Z,18.20
2017-07-19T22:34:50.797Z,18.10
2017-07-19T22:37:18.273Z,18.10
2017-07-19T22:39:45.900Z,18.00
2017-07-19T22:42:13.377Z,17.90
2017-07-19T22:44:40.868Z,18.00
2017-07-19T22:47:09.114Z,17.90
2017-07-19T22:49:36.616Z,17.90
2017-07-19T22:52:04.853Z,17.90
2017-07-19T22:54:32.342Z,17.90
2017-07-19T22:57:00.573Z,18.00
2017-07-19T22:59:28.066Z,18.00
2017-07-19T23:01:55.575Z,18.10
2017-07-19T23:04:23.057Z,18.20
2017-07-19T23:06:50.534Z,18.30
2017-07-19T23:09:18.028Z,18.20
2017-07-19T23:11:45.507Z,18.10
2017-07-19T23:14:13.007Z,18.00
2017-07-19T23:16:40.480Z,18.00
2017-07-19T23:19:08.737Z,18.00
2017-07-19T23:21:36.212Z,18.00
2017-07-19T23:24:04.475Z,18.10
2017-07-19T23:26:31.993Z,18.10
2017-07-19T23:28:59.484Z,18.10
2017-07-19T23:31:27.013Z,18.00
2017-07-19T23:33:54.488Z,18.00
2017-07-19T23:36:22.028Z,18.00
2017-07-19T23:38:49.505Z,17.90
2017-07-19T23:41:17.012Z,17.90
2017-07-19T23:43:45.268Z,18.00
2017-07-19T23:46:12.775Z,17.90
2017-07-19T23:48:40.338Z,18.00
2017-07-19T23:51:07.816Z,18.10
2017-07-19T23:53:35.300Z,18.10
2017-07-19T23:56:02.776Z,18.10
2017-07-19T23:58:31.047Z,18.20
